Time;durP1;ratioP1;P1;durP2;ratioP2;P2;SDS_P1;SDS_P2;PMS_P1;PMS_P2;Temp;Humidity;BMP_temperature;BMP_pressure;BME280_temperature;BME280_humidity;BME280_pressure;Samples;Min_cycle;Max_cycle;Signal;HPM_P1;HPM_P2
2023/12/02 00:00:19;;;;;;;20.30;13.03;;;;;;;;;;5040531;28;20454;-55
2023/12/02 00:02:45;;;;;;;18.50;13.37;;;;;;;;;;5039821;28;20215;-54
2023/12/02 00:05:11;;;;;;;18.77;13.23;;;;;;;;;;5039554;28;20454;-54
2023/12/02 00:07:37;;;;;;;18.93;13.30;;;;;;;;;;5041187;28;20197;-54
2023/12/02 00:10:03;;;;;;;20.37;13.23;;;;;;;;;;5039588;28;20446;-54
2023/12/02 00:12:29;;;;;;;20.33;13.97;;;;;;;;;;5039287;28;20478;-54
2023/12/02 00:14:55;;;;;;;18.47;13.27;;;;;;;;;;5039377;28;20466;-54
2023/12/02 00:17:23;;;;;;;18.93;13.13;;;;;;;;;;5044585;28;20216;-54
2023/12/02 00:19:49;;;;;;;19.00;12.83;;;;;;;;;;5050991;28;20611;-53
2023/12/02 00:22:15;;;;;;;20.60;13.27;;;;;;;;;;5038952;28;20439;-53
2023/12/02 00:24:41;;;;;;;20.03;12.97;;;;;;;;;;5032803;28;20980;-54
2023/12/02 00:27:07;;;;;;;20.93;14.00;;;;;;;;;;5032570;28;20193;-54
2023/12/02 00:29:33;;;;;;;19.80;13.43;;;;;;;;;;5032435;28;20196;-54
2023/12/02 00:31:59;;;;;;;20.70;13.43;;;;;;;;;;5032678;28;20209;-54
2023/12/02 00:34:26;;;;;;;21.63;14.23;;;;;;;;;;5032569;28;21026;-53
2023/12/02 00:36:52;;;;;;;22.10;15.07;;;;;;;;;;5032328;28;20233;-54
2023/12/02 00:39:18;;;;;;;21.90;13.73;;;;;;;;;;5032400;28;20954;-53
2023/12/02 00:41:44;;;;;;;22.50;13.80;;;;;;;;;;5032401;28;20856;-53
2023/12/02 00:44:10;;;;;;;19.87;12.57;;;;;;;;;;5032409;28;20439;-53
2023/12/02 00:46:36;;;;;;;22.60;14.33;;;;;;;;;;5032071;28;20239;-53
2023/12/02 00:49:02;;;;;;;21.63;14.23;;;;;;;;;;5032568;28;20458;-54
2023/12/02 00:51:29;;;;;;;23.90;14.10;;;;;;;;;;5047508;28;20945;-53
2023/12/02 00:53:55;;;;;;;24.57;15.03;;;;;;;;;;5052137;28;20446;-53
2023/12/02 00:56:22;;;;;;;22.67;14.73;;;;;;;;;;5052105;28;20474;-54
2023/12/02 00:58:48;;;;;;;22.13;14.27;;;;;;;;;;5051694;28;20434;-55
2023/12/02 01:01:14;;;;;;;24.40;14.80;;;;;;;;;;5051934;28;20508;-54
2023/12/02 01:03:40;;;;;;;26.10;14.50;;;;;;;;;;5052210;28;20665;-53
2023/12/02 01:06:06;;;;;;;23.93;15.90;;;;;;;;;;5052319;28;20426;-53
2023/12/02 01:08:33;;;;;;;21.03;14.53;;;;;;;;;;5048082;28;20502;-54
2023/12/02 01:10:59;;;;;;;22.43;15.80;;;;;;;;;;5051732;28;20443;-53
2023/12/02 01:13:25;;;;;;;25.87;16.13;;;;;;;;;;5051999;28;20441;-53
2023/12/02 01:15:51;;;;;;;26.67;16.50;;;;;;;;;;5051878;28;20224;-53
2023/12/02 01:18:17;;;;;;;24.70;15.33;;;;;;;;;;5051909;28;20276;-55
2023/12/02 01:20:44;;;;;;;24.77;15.40;;;;;;;;;;5051761;28;20196;-54
2023/12/02 01:23:10;;;;;;;24.33;16.37;;;;;;;;;;5051765;28;20279;-54
2023/12/02 01:25:37;;;;;;;23.60;15.87;;;;;;;;;;5051677;28;20535;-54
2023/12/02 01:28:03;;;;;;;27.90;17.63;;;;;;;;;;5051734;28;20438;-54
2023/12/02 01:30:29;;;;;;;25.37;16.33;;;;;;;;;;5051642;28;20446;-53
2023/12/02 01:32:55;;;;;;;22.87;15.63;;;;;;;;;;5051993;28;20454;-54
2023/12/02 01:35:21;;;;;;;23.50;15.17;;;;;;;;;;5051565;28;20442;-54
2023/12/02 01:37:47;;;;;;;18.30;13.87;;;;;;;;;;5051558;28;20204;-53
2023/12/02 01:40:13;;;;;;;21.73;14.87;;;;;;;;;;5051701;28;20701;-53
2023/12/02 01:42:41;;;;;;;21.77;14.70;;;;;;;;;;5051428;28;20204;-52
2023/12/02 01:45:07;;;;;;;21.50;14.90;;;;;;;;;;5048016;28;20985;-52
2023/12/02 01:47:33;;;;;;;21.93;14.57;;;;;;;;;;5049799;28;20423;-52
2023/12/02 01:50:03;;;;;;;23.70;15.33;;;;;;;;;;5051661;28;20439;-52
2023/12/02 01:52:29;;;;;;;24.23;15.53;;;;;;;;;;5049677;28;20423;-52
2023/12/02 01:54:55;;;;;;;21.07;14.63;;;;;;;;;;5051417;28;20450;-52
2023/12/02 01:57:21;;;;;;;22.67;15.23;;;;;;;;;;5051758;28;20235;-53
2023/12/02 01:59:52;;;;;;;22.23;14.73;;;;;;;;;;5049643;28;20427;-53
2023/12/02 02:02:18;;;;;;;21.23;14.93;;;;;;;;;;5044614;28;20579;-51
2023/12/02 02:04:44;;;;;;;23.60;14.97;;;;;;;;;;5047798;28;20450;-51
2023/12/02 02:07:10;;;;;;;24.20;15.17;;;;;;;;;;5046319;28;20238;-53
2023/12/02 02:09:45;;;;;;;27.00;17.20;;;;;;;;;;5042067;28;20204;-52
2023/12/02 02:12:11;;;;;;;25.20;17.57;;;;;;;;;;5041125;28;20624;-52
2023/12/02 02:14:37;;;;;;;24.00;17.10;;;;;;;;;;5044266;28;20477;-52
2023/12/02 02:17:05;;;;;;;24.43;16.63;;;;;;;;;;5044610;28;20932;-51
2023/12/02 02:19:31;;;;;;;26.40;17.83;;;;;;;;;;5046240;28;20202;-51
2023/12/02 02:21:59;;;;;;;27.37;18.43;;;;;;;;;;5041541;28;20913;-51
2023/12/02 02:24:25;;;;;;;26.33;17.03;;;;;;;;;;5044912;28;20479;-51
2023/12/02 02:26:51;;;;;;;26.80;17.77;;;;;;;;;;5043061;28;20918;-51
2023/12/02 02:29:17;;;;;;;25.77;16.90;;;;;;;;;;5041370;28;20434;-51
2023/12/02 02:31:43;;;;;;;27.63;17.80;;;;;;;;;;5044581;28;20265;-52
2023/12/02 02:34:09;;;;;;;26.87;18.07;;;;;;;;;;5043018;28;20773;-51
2023/12/02 02:36:35;;;;;;;26.20;17.40;;;;;;;;;;5044728;28;21045;-51
2023/12/02 02:39:02;;;;;;;25.90;16.00;;;;;;;;;;5044736;28;20492;-52
2023/12/02 02:41:28;;;;;;;25.33;17.13;;;;;;;;;;5042938;28;20200;-51
2023/12/02 02:43:55;;;;;;;25.60;16.37;;;;;;;;;;5044533;28;20442;-52
2023/12/02 02:46:21;;;;;;;29.00;17.40;;;;;;;;;;5042596;28;20471;-52
2023/12/02 02:48:47;;;;;;;26.07;17.17;;;;;;;;;;5042812;28;20192;-52
2023/12/02 02:51:13;;;;;;;25.67;17.27;;;;;;;;;;5042615;28;20447;-51
2023/12/02 02:53:39;;;;;;;26.90;17.23;;;;;;;;;;5041040;28;20204;-52
2023/12/02 02:56:07;;;;;;;29.37;16.77;;;;;;;;;;5042635;28;20220;-53
2023/12/02 02:58:36;;;;;;;27.53;17.17;;;;;;;;;;5045893;28;20426;-52
2023/12/02 03:01:02;;;;;;;28.67;17.80;;;;;;;;;;5042500;28;20434;-52
2023/12/02 03:03:28;;;;;;;28.07;17.17;;;;;;;;;;5042587;28;20437;-52
2023/12/02 03:05:55;;;;;;;28.50;18.37;;;;;;;;;;5040655;28;20443;-51
2023/12/02 03:08:21;;;;;;;27.03;17.20;;;;;;;;;;5040651;28;20450;-51
2023/12/02 03:10:48;;;;;;;30.63;17.77;;;;;;;;;;5040552;28;20505;-52
2023/12/02 03:13:16;;;;;;;28.47;19.17;;;;;;;;;;5042284;28;20925;-51
2023/12/02 03:15:42;;;;;;;28.63;18.70;;;;;;;;;;5043942;28;20438;-51
2023/12/02 03:18:08;;;;;;;31.13;18.97;;;;;;;;;;5040599;28;20699;-52
2023/12/02 03:20:34;;;;;;;32.37;18.73;;;;;;;;;;5040289;28;20474;-51
2023/12/02 03:23:00;;;;;;;32.60;19.10;;;;;;;;;;5042092;28;20706;-52
2023/12/02 03:25:26;;;;;;;30.80;18.57;;;;;;;;;;5040283;28;20534;-52
2023/12/02 03:27:52;;;;;;;28.77;18.53;;;;;;;;;;5040307;28;20470;-52
2023/12/02 03:30:19;;;;;;;31.23;18.97;;;;;;;;;;5041974;28;20461;-53
2023/12/02 03:32:45;;;;;;;30.37;18.87;;;;;;;;;;5040000;28;20224;-51
2023/12/02 03:35:11;;;;;;;30.93;19.90;;;;;;;;;;5040222;28;20453;-50
2023/12/02 03:37:37;;;;;;;32.20;18.80;;;;;;;;;;5041600;28;20589;-51
2023/12/02 03:40:04;;;;;;;33.30;19.33;;;;;;;;;;5039968;28;20587;-49
2023/12/02 03:42:30;;;;;;;33.67;19.67;;;;;;;;;;5041597;28;20443;-50
2023/12/02 03:44:56;;;;;;;30.37;19.73;;;;;;;;;;5040096;28;20485;-50
2023/12/02 03:47:24;;;;;;;35.57;20.20;;;;;;;;;;5042121;28;20518;-50
2023/12/02 03:49:50;;;;;;;37.03;20.27;;;;;;;;;;5040036;28;20449;-51
2023/12/02 03:52:16;;;;;;;35.73;21.00;;;;;;;;;;5045857;28;20443;-50
2023/12/02 03:54:42;;;;;;;29.03;18.47;;;;;;;;;;5041539;28;20231;-51
2023/12/02 03:57:08;;;;;;;34.50;20.57;;;;;;;;;;5041422;28;20510;-51
2023/12/02 03:59:34;;;;;;;33.50;20.50;;;;;;;;;;5039905;28;20200;-53
2023/12/02 04:02:00;;;;;;;35.93;21.27;;;;;;;;;;5039816;28;20278;-51
2023/12/02 04:04:27;;;;;;;32.23;19.33;;;;;;;;;;5039729;28;20227;-52
2023/12/02 04:06:53;;;;;;;35.13;20.03;;;;;;;;;;5039613;28;20528;-51
2023/12/02 04:09:19;;;;;;;35.37;21.17;;;;;;;;;;5039558;28;20447;-51
2023/12/02 04:11:48;;;;;;;32.63;20.40;;;;;;;;;;5040974;28;20455;-51
2023/12/02 04:14:14;;;;;;;29.97;19.10;;;;;;;;;;5039397;28;20484;-52
2023/12/02 04:16:41;;;;;;;33.77;20.20;;;;;;;;;;5040995;28;20527;-52
2023/12/02 04:19:07;;;;;;;31.90;20.30;;;;;;;;;;5039499;28;20459;-52
2023/12/02 04:21:35;;;;;;;35.67;21.17;;;;;;;;;;5039176;28;20513;-53
2023/12/02 04:24:02;;;;;;;33.60;20.87;;;;;;;;;;5039436;28;20470;-52
2023/12/02 04:26:27;;;;;;;37.47;22.13;;;;;;;;;;5039054;28;20449;-52
2023/12/02 04:28:53;;;;;;;31.60;19.80;;;;;;;;;;5039167;28;20443;-51
2023/12/02 04:31:20;;;;;;;33.43;20.00;;;;;;;;;;5039241;28;20239;-52
2023/12/02 04:33:46;;;;;;;33.73;20.87;;;;;;;;;;5039037;28;20446;-52
2023/12/02 04:36:14;;;;;;;33.07;20.17;;;;;;;;;;5038874;28;20482;-52
2023/12/02 04:38:41;;;;;;;32.77;20.07;;;;;;;;;;5038843;28;20439;-52
2023/12/02 04:41:08;;;;;;;30.40;18.80;;;;;;;;;;5038897;28;20471;-53
2023/12/02 04:43:34;;;;;;;29.67;19.07;;;;;;;;;;5045778;28;20427;-52
2023/12/02 04:46:00;;;;;;;35.17;21.17;;;;;;;;;;5051773;28;20536;-52
2023/12/02 04:48:27;;;;;;;32.20;20.20;;;;;;;;;;5052313;28;20778;-52
2023/12/02 04:50:53;;;;;;;31.57;19.93;;;;;;;;;;5052307;28;20500;-52
2023/12/02 04:53:19;;;;;;;33.13;20.03;;;;;;;;;;5052341;28;20426;-52
2023/12/02 04:55:47;;;;;;;30.00;18.80;;;;;;;;;;5038475;28;20968;-52
2023/12/02 04:58:13;;;;;;;30.17;19.77;;;;;;;;;;5038629;28;20231;-52
2023/12/02 05:00:39;;;;;;;34.03;19.70;;;;;;;;;;5038499;28;20480;-52
2023/12/02 05:03:05;;;;;;;32.10;20.23;;;;;;;;;;5038788;28;20200;-51
2023/12/02 05:05:32;;;;;;;30.67;19.43;;;;;;;;;;5038433;28;20203;-52
2023/12/02 05:07:58;;;;;;;31.87;19.13;;;;;;;;;;5038409;28;20426;-53
2023/12/02 05:10:24;;;;;;;30.33;19.63;;;;;;;;;;5038385;28;20446;-52
2023/12/02 05:12:51;;;;;;;28.07;18.23;;;;;;;;;;5038404;28;20447;-51
2023/12/02 05:15:17;;;;;;;31.03;20.20;;;;;;;;;;5038208;28;20579;-52
2023/12/02 05:17:45;;;;;;;30.70;19.57;;;;;;;;;;5038128;28;20537;-52
2023/12/02 05:20:13;;;;;;;31.53;20.37;;;;;;;;;;5038299;28;20435;-52
2023/12/02 05:22:39;;;;;;;29.97;19.40;;;;;;;;;;5038142;28;20500;-52
2023/12/02 05:25:06;;;;;;;30.97;19.90;;;;;;;;;;5037443;28;20526;-53
2023/12/02 05:27:32;;;;;;;32.80;19.97;;;;;;;;;;5038036;28;21530;-52
2023/12/02 05:30:00;;;;;;;30.27;19.47;;;;;;;;;;5038240;28;21414;-52
2023/12/02 05:32:26;;;;;;;29.60;20.27;;;;;;;;;;5036806;28;20466;-53
2023/12/02 05:34:52;;;;;;;29.17;19.17;;;;;;;;;;5037956;28;20426;-52
2023/12/02 05:37:18;;;;;;;29.83;19.50;;;;;;;;;;5037867;28;20814;-51
2023/12/02 05:39:44;;;;;;;32.23;19.70;;;;;;;;;;5037896;28;20200;-51
2023/12/02 05:42:10;;;;;;;30.77;19.23;;;;;;;;;;5037895;28;20699;-51
2023/12/02 05:44:38;;;;;;;31.33;19.63;;;;;;;;;;5037691;28;20247;-52
2023/12/02 05:47:05;;;;;;;30.97;20.47;;;;;;;;;;5037880;28;20188;-52
2023/12/02 05:49:31;;;;;;;32.57;20.10;;;;;;;;;;5037858;28;20492;-53
2023/12/02 05:51:57;;;;;;;28.83;18.90;;;;;;;;;;5036908;28;20434;-52
2023/12/02 05:54:23;;;;;;;31.87;20.87;;;;;;;;;;5039543;28;20207;-52
2023/12/02 05:56:52;;;;;;;33.77;20.80;;;;;;;;;;5038037;28;20486;-52
2023/12/02 05:59:19;;;;;;;31.47;20.10;;;;;;;;;;5043668;28;20200;-52
2023/12/02 06:01:45;;;;;;;32.73;19.77;;;;;;;;;;5041657;28;20466;-53
2023/12/02 06:04:12;;;;;;;30.60;19.73;;;;;;;;;;5042537;28;20465;-52
2023/12/02 06:06:38;;;;;;;32.93;20.67;;;;;;;;;;5041598;28;20447;-52
2023/12/02 06:09:05;;;;;;;28.73;19.20;;;;;;;;;;5041956;28;20438;-52
2023/12/02 06:11:31;;;;;;;30.47;19.10;;;;;;;;;;5041617;28;20467;-51
2023/12/02 06:13:57;;;;;;;31.77;20.23;;;;;;;;;;5041593;28;20427;-53
2023/12/02 06:16:23;;;;;;;29.50;19.43;;;;;;;;;;5042974;28;20552;-52
2023/12/02 06:18:49;;;;;;;33.73;20.50;;;;;;;;;;5041484;28;20929;-52
2023/12/02 06:21:16;;;;;;;31.00;19.33;;;;;;;;;;5040277;28;20661;-52
2023/12/02 06:23:42;;;;;;;33.73;19.87;;;;;;;;;;5042722;28;20447;-53
2023/12/02 06:26:08;;;;;;;30.00;19.37;;;;;;;;;;5041568;28;20517;-52
2023/12/02 06:28:34;;;;;;;30.23;18.97;;;;;;;;;;5041443;28;20860;-53
2023/12/02 06:31:00;;;;;;;32.27;20.57;;;;;;;;;;5041529;28;20442;-52
2023/12/02 06:33:26;;;;;;;29.87;18.83;;;;;;;;;;5041386;28;20216;-53
2023/12/02 06:35:52;;;;;;;26.73;18.37;;;;;;;;;;5041164;28;20508;-52
2023/12/02 06:38:20;;;;;;;30.53;18.70;;;;;;;;;;5041450;28;20948;-52
2023/12/02 06:40:46;;;;;;;30.73;18.87;;;;;;;;;;5039526;28;20271;-54
2023/12/02 06:43:12;;;;;;;28.60;18.30;;;;;;;;;;5041780;28;20526;-53
2023/12/02 06:45:38;;;;;;;31.83;18.83;;;;;;;;;;5041163;28;20243;-52
2023/12/02 06:48:04;;;;;;;29.87;19.03;;;;;;;;;;5041576;28;20430;-52
2023/12/02 06:50:30;;;;;;;29.43;18.27;;;;;;;;;;5041017;28;20315;-51
2023/12/02 06:52:56;;;;;;;33.60;19.53;;;;;;;;;;5040967;28;20453;-52
2023/12/02 06:55:24;;;;;;;30.40;18.50;;;;;;;;;;5041189;28;20438;-51
2023/12/02 06:57:50;;;;;;;29.53;18.30;;;;;;;;;;5040682;28;20306;-52
2023/12/02 07:00:16;;;;;;;29.97;17.97;;;;;;;;;;5040967;28;20980;-53
2023/12/02 07:02:42;;;;;;;29.30;18.40;;;;;;;;;;5040669;28;20226;-52
2023/12/02 07:05:08;;;;;;;30.77;18.83;;;;;;;;;;5040756;28;20445;-53
2023/12/02 07:07:34;;;;;;;30.27;18.87;;;;;;;;;;5040074;28;20945;-52
2023/12/02 07:10:00;;;;;;;31.27;18.90;;;;;;;;;;5040602;28;20439;-52
2023/12/02 07:12:28;;;;;;;30.33;19.27;;;;;;;;;;5040572;28;20439;-53
2023/12/02 07:14:54;;;;;;;28.07;18.70;;;;;;;;;;5038673;28;20223;-52
2023/12/02 07:17:20;;;;;;;33.80;19.83;;;;;;;;;;5040315;28;20485;-53
2023/12/02 07:19:46;;;;;;;30.77;20.27;;;;;;;;;;5040470;28;20995;-52
2023/12/02 07:22:12;;;;;;;30.13;19.03;;;;;;;;;;5040492;28;20246;-53
2023/12/02 07:24:38;;;;;;;33.50;19.13;;;;;;;;;;5041800;28;20223;-53
2023/12/02 07:27:04;;;;;;;29.47;18.53;;;;;;;;;;5038019;28;20198;-53
2023/12/02 07:29:31;;;;;;;31.73;20.00;;;;;;;;;;5040221;28;20192;-54
2023/12/02 07:31:57;;;;;;;29.77;19.03;;;;;;;;;;5040135;28;20475;-53
2023/12/02 07:34:23;;;;;;;33.73;19.27;;;;;;;;;;5040154;28;20519;-53
2023/12/02 07:36:49;;;;;;;33.13;19.33;;;;;;;;;;5039930;28;20580;-53
2023/12/02 07:39:15;;;;;;;32.60;20.07;;;;;;;;;;5039911;28;20226;-52
2023/12/02 07:41:42;;;;;;;31.63;19.67;;;;;;;;;;5040139;28;20200;-54
2023/12/02 07:44:08;;;;;;;33.50;20.73;;;;;;;;;;5040139;28;20438;-52
2023/12/02 07:46:35;;;;;;;33.07;20.23;;;;;;;;;;5039881;28;20480;-52
2023/12/02 07:49:01;;;;;;;31.00;19.57;;;;;;;;;;5041322;28;20925;-53
2023/12/02 07:51:27;;;;;;;31.63;19.83;;;;;;;;;;5041521;28;20453;-53
2023/12/02 07:53:53;;;;;;;33.13;20.30;;;;;;;;;;5039029;28;20224;-53
2023/12/02 07:56:19;;;;;;;32.30;20.93;;;;;;;;;;5032904;28;20472;-54
2023/12/02 07:58:45;;;;;;;31.60;19.60;;;;;;;;;;5041943;28;20957;-53
2023/12/02 08:01:11;;;;;;;32.50;19.27;;;;;;;;;;5051022;28;20187;-53
2023/12/02 08:03:39;;;;;;;32.37;19.97;;;;;;;;;;5053063;28;20226;-54
2023/12/02 08:06:05;;;;;;;33.67;19.13;;;;;;;;;;5053209;28;20449;-53
2023/12/02 08:08:31;;;;;;;34.20;21.33;;;;;;;;;;5053183;28;20451;-53
2023/12/02 08:10:57;;;;;;;29.97;20.07;;;;;;;;;;5051533;28;20450;-53
2023/12/02 08:13:23;;;;;;;32.93;20.33;;;;;;;;;;5051236;28;20658;-52
2023/12/02 08:15:49;;;;;;;32.57;20.53;;;;;;;;;;5047880;28;20291;-53
2023/12/02 08:18:18;;;;;;;30.80;19.67;;;;;;;;;;5044353;28;21049;-53
2023/12/02 08:20:46;;;;;;;33.27;19.60;;;;;;;;;;5045103;28;20954;-53
2023/12/02 08:23:12;;;;;;;31.67;20.67;;;;;;;;;;5046121;28;20439;-51
2023/12/02 08:25:38;;;;;;;32.70;21.03;;;;;;;;;;5044363;28;20459;-52
2023/12/02 08:28:04;;;;;;;35.40;21.90;;;;;;;;;;5040863;28;20541;-52
2023/12/02 08:30:30;;;;;;;32.60;21.13;;;;;;;;;;5042714;28;20510;-53
2023/12/02 08:32:56;;;;;;;37.27;23.23;;;;;;;;;;5040608;28;20622;-53
2023/12/02 08:35:22;;;;;;;34.17;21.17;;;;;;;;;;5040553;28;20235;-52
2023/12/02 08:37:49;;;;;;;35.13;21.97;;;;;;;;;;5040423;28;20216;-53
2023/12/02 08:40:16;;;;;;;34.33;22.57;;;;;;;;;;5038918;28;20205;-53
2023/12/02 08:42:41;;;;;;;35.23;22.10;;;;;;;;;;5038670;28;20925;-53
2023/12/02 08:45:08;;;;;;;35.03;21.37;;;;;;;;;;5038769;28;20550;-53
2023/12/02 08:47:34;;;;;;;35.67;22.57;;;;;;;;;;5040382;28;20196;-52
2023/12/02 08:50:00;;;;;;;36.40;22.93;;;;;;;;;;5040253;28;20936;-53
2023/12/02 08:52:26;;;;;;;36.90;22.07;;;;;;;;;;5038918;28;20199;-58
2023/12/02 08:54:53;;;;;;;36.50;23.67;;;;;;;;;;5038780;28;20617;-56
2023/12/02 08:57:19;;;;;;;33.10;21.70;;;;;;;;;;5038512;28;20224;-56
2023/12/02 08:59:45;;;;;;;34.90;21.83;;;;;;;;;;5041937;28;20437;-55
2023/12/02 09:02:11;;;;;;;37.47;22.57;;;;;;;;;;5038505;28;20200;-55
2023/12/02 09:04:37;;;;;;;34.27;22.50;;;;;;;;;;5038400;28;20223;-54
2023/12/02 09:07:04;;;;;;;34.93;22.47;;;;;;;;;;5040388;28;20207;-56
2023/12/02 09:09:30;;;;;;;34.07;21.27;;;;;;;;;;5039705;28;20717;-60
2023/12/02 09:11:57;;;;;;;35.40;22.43;;;;;;;;;;5038190;28;21008;-58
2023/12/02 09:14:23;;;;;;;33.40;21.40;;;;;;;;;;5038219;28;20441;-54
2023/12/02 09:16:50;;;;;;;36.93;22.17;;;;;;;;;;5039827;28;20555;-55
2023/12/02 09:19:49;;;;;;;33.23;20.60;;;;;;;;;;5038422;28;20496;-56
2023/12/02 09:22:26;;;;;;;31.93;20.20;;;;;;;;;;5038451;28;20955;-54
2023/12/02 09:24:52;;;;;;;33.03;21.17;;;;;;;;;;5040174;28;20438;-55
2023/12/02 09:27:47;;;;;;;33.40;20.60;;;;;;;;;;5038348;28;20439;-53
2023/12/02 09:30:16;;;;;;;32.93;21.40;;;;;;;;;;5038222;28;20443;-53
2023/12/02 09:32:45;;;;;;;31.03;20.07;;;;;;;;;;5037886;28;20463;-54
2023/12/02 09:35:11;;;;;;;29.63;20.53;;;;;;;;;;5038322;28;20446;-53
2023/12/02 09:37:50;;;;;;;35.90;22.13;;;;;;;;;;5037971;28;20628;-53
2023/12/02 09:40:29;;;;;;;31.63;20.53;;;;;;;;;;5038127;28;20433;-53
2023/12/02 09:43:04;;;;;;;30.73;20.83;;;;;;;;;;5037796;28;20490;-53
2023/12/02 09:45:33;;;;;;;32.83;20.87;;;;;;;;;;5037864;28;20466;-53
2023/12/02 09:48:02;;;;;;;31.60;22.20;;;;;;;;;;5039728;28;20454;-54
2023/12/02 09:50:30;;;;;;;29.00;19.47;;;;;;;;;;5039843;28;20482;-53
2023/12/02 09:53:01;;;;;;;31.43;21.10;;;;;;;;;;5038036;28;20496;-53
2023/12/02 09:55:32;;;;;;;29.53;20.37;;;;;;;;;;5037882;28;20481;-53
2023/12/02 09:58:06;;;;;;;27.97;19.40;;;;;;;;;;5039487;28;20478;-54
2023/12/02 10:00:37;;;;;;;26.20;18.67;;;;;;;;;;5038109;28;20808;-53
2023/12/02 10:03:08;;;;;;;28.37;19.60;;;;;;;;;;5037948;28;20521;-54
2023/12/02 10:05:40;;;;;;;31.67;20.83;;;;;;;;;;5037896;28;20438;-53
2023/12/02 10:08:12;;;;;;;30.17;19.90;;;;;;;;;;5037647;28;20439;-53
2023/12/02 10:10:43;;;;;;;30.37;20.43;;;;;;;;;;5037666;28;20435;-53
2023/12/02 10:13:17;;;;;;;29.67;20.20;;;;;;;;;;5037888;28;20441;-53
2023/12/02 10:15:45;;;;;;;29.33;18.97;;;;;;;;;;5037748;28;20438;-53
2023/12/02 10:18:15;;;;;;;29.33;19.83;;;;;;;;;;5037914;28;20470;-54
2023/12/02 10:20:42;;;;;;;28.60;19.43;;;;;;;;;;5037675;28;20862;-53
2023/12/02 10:23:11;;;;;;;27.70;17.53;;;;;;;;;;5037858;28;20774;-53
2023/12/02 10:25:41;;;;;;;27.03;18.47;;;;;;;;;;5037635;28;20447;-52
2023/12/02 10:28:12;;;;;;;27.50;17.70;;;;;;;;;;5037594;28;20443;-53
2023/12/02 10:30:42;;;;;;;29.13;20.07;;;;;;;;;;5037616;28;20427;-52
2023/12/02 10:33:10;;;;;;;28.00;18.93;;;;;;;;;;5037516;28;20814;-53
2023/12/02 10:35:42;;;;;;;27.00;17.87;;;;;;;;;;5037585;28;20514;-53
2023/12/02 10:38:13;;;;;;;27.00;18.13;;;;;;;;;;5037543;28;20475;-53
2023/12/02 10:40:41;;;;;;;28.40;18.80;;;;;;;;;;5037372;28;20484;-53
2023/12/02 10:43:10;;;;;;;29.53;18.70;;;;;;;;;;5040180;28;20446;-53
2023/12/02 10:45:40;;;;;;;25.00;16.70;;;;;;;;;;5042845;28;20478;-53
2023/12/02 10:48:08;;;;;;;26.77;18.27;;;;;;;;;;5041117;28;20453;-54
2023/12/02 10:50:35;;;;;;;28.03;18.07;;;;;;;;;;5041363;28;20465;-52
2023/12/02 10:53:01;;;;;;;30.33;18.17;;;;;;;;;;5040993;28;20455;-52
2023/12/02 10:55:30;;;;;;;26.40;18.33;;;;;;;;;;5041279;28;20439;-55
2023/12/02 10:57:57;;;;;;;26.60;17.20;;;;;;;;;;5040796;28;20903;-53
2023/12/02 11:00:24;;;;;;;27.00;17.70;;;;;;;;;;5041106;28;20451;-53
2023/12/02 11:02:54;;;;;;;25.03;17.60;;;;;;;;;;5040810;28;20438;-54
2023/12/02 11:05:22;;;;;;;29.00;18.47;;;;;;;;;;5040427;28;21098;-52
2023/12/02 11:07:49;;;;;;;29.40;18.03;;;;;;;;;;5042043;28;20935;-54
2023/12/02 11:10:19;;;;;;;27.90;17.20;;;;;;;;;;5040597;28;20925;-52
2023/12/02 11:12:51;;;;;;;27.87;17.83;;;;;;;;;;5040395;28;20453;-53
2023/12/02 11:15:20;;;;;;;25.00;17.80;;;;;;;;;;5040343;28;20431;-53
2023/12/02 11:17:49;;;;;;;32.03;19.10;;;;;;;;;;5040260;28;20470;-52
2023/12/02 11:20:16;;;;;;;27.67;17.60;;;;;;;;;;5040421;28;20485;-53
2023/12/02 11:22:57;;;;;;;27.47;19.37;;;;;;;;;;5040235;28;20447;-52
2023/12/02 11:25:26;;;;;;;27.87;18.27;;;;;;;;;;5040503;28;20492;-53
2023/12/02 11:27:55;;;;;;;26.10;17.93;;;;;;;;;;5040192;28;20485;-53
2023/12/02 11:30:26;;;;;;;24.00;16.83;;;;;;;;;;5040159;28;20913;-53
2023/12/02 11:32:57;;;;;;;26.60;16.83;;;;;;;;;;5040059;28;21051;-52
2023/12/02 11:35:30;;;;;;;25.37;17.60;;;;;;;;;;5040355;28;20441;-52
2023/12/02 11:37:58;;;;;;;26.67;17.00;;;;;;;;;;5039898;28;20933;-52
2023/12/02 11:40:27;;;;;;;31.97;18.63;;;;;;;;;;5039929;28;20933;-53
2023/12/02 11:42:56;;;;;;;25.60;16.03;;;;;;;;;;5040018;28;20490;-53
2023/12/02 11:45:24;;;;;;;26.07;17.20;;;;;;;;;;5040047;28;20463;-53
2023/12/02 11:48:03;;;;;;;28.73;17.80;;;;;;;;;;5040102;28;20442;-53
2023/12/02 11:50:33;;;;;;;24.00;17.07;;;;;;;;;;5040065;28;20442;-53
2023/12/02 11:53:10;;;;;;;28.70;18.13;;;;;;;;;;5040240;28;20959;-53
2023/12/02 11:55:42;;;;;;;28.70;18.27;;;;;;;;;;5041711;28;20447;-53
2023/12/02 11:58:12;;;;;;;27.93;18.37;;;;;;;;;;5039711;28;20470;-53
2023/12/02 12:00:45;;;;;;;26.87;17.30;;;;;;;;;;5039912;28;20431;-53
2023/12/02 12:03:18;;;;;;;26.20;17.67;;;;;;;;;;5039858;28;20439;-53
2023/12/02 12:05:49;;;;;;;27.27;18.50;;;;;;;;;;5039669;28;20979;-53
2023/12/02 12:08:18;;;;;;;28.70;19.03;;;;;;;;;;5039752;28;21144;-53
2023/12/02 12:10:45;;;;;;;28.70;18.37;;;;;;;;;;5039403;28;20495;-53
2023/12/02 12:13:11;;;;;;;27.30;18.13;;;;;;;;;;5039567;28;20439;-52
2023/12/02 12:15:38;;;;;;;29.07;19.73;;;;;;;;;;5039564;28;20924;-53
2023/12/02 12:18:04;;;;;;;28.57;20.23;;;;;;;;;;5039235;28;20482;-53
2023/12/02 12:20:31;;;;;;;29.77;20.10;;;;;;;;;;5039421;28;20854;-53
2023/12/02 12:22:57;;;;;;;30.43;19.57;;;;;;;;;;5041038;28;20443;-53
2023/12/02 12:25:29;;;;;;;29.10;19.83;;;;;;;;;;5039272;28;20445;-53
2023/12/02 12:28:00;;;;;;;30.07;19.97;;;;;;;;;;5039370;28;20457;-52
2023/12/02 12:30:26;;;;;;;25.93;17.90;;;;;;;;;;5039419;28;20514;-52
2023/12/02 12:32:52;;;;;;;31.00;20.43;;;;;;;;;;5039086;28;21052;-52
2023/12/02 12:35:19;;;;;;;28.10;19.73;;;;;;;;;;5037589;28;21247;-52
2023/12/02 12:37:45;;;;;;;30.00;21.30;;;;;;;;;;5040746;28;20844;-53
2023/12/02 12:40:12;;;;;;;34.10;24.17;;;;;;;;;;5040738;28;20474;-53
2023/12/02 12:42:47;;;;;;;29.70;19.50;;;;;;;;;;5038905;28;20978;-53
2023/12/02 12:45:13;;;;;;;34.53;22.40;;;;;;;;;;5039011;28;20462;-52
2023/12/02 12:47:40;;;;;;;30.57;21.47;;;;;;;;;;5039003;28;20437;-52
2023/12/02 12:50:11;;;;;;;31.13;21.13;;;;;;;;;;5038826;28;20489;-52
2023/12/02 12:52:39;;;;;;;30.40;20.17;;;;;;;;;;5038958;28;20438;-52
2023/12/02 12:55:08;;;;;;;29.83;20.40;;;;;;;;;;5037082;28;20442;-52
2023/12/02 12:57:38;;;;;;;27.07;19.10;;;;;;;;;;5040219;28;20861;-53
2023/12/02 13:00:10;;;;;;;28.23;19.53;;;;;;;;;;5038711;28;21074;-53
2023/12/02 13:02:41;;;;;;;29.70;20.13;;;;;;;;;;5038680;28;20450;-52
2023/12/02 13:05:09;;;;;;;28.53;19.90;;;;;;;;;;5038581;28;20457;-52
2023/12/02 13:07:40;;;;;;;29.37;18.97;;;;;;;;;;5038187;28;20477;-52
2023/12/02 13:10:08;;;;;;;29.27;19.10;;;;;;;;;;5040284;28;21461;-52
2023/12/02 13:12:36;;;;;;;30.77;19.80;;;;;;;;;;5038512;28;20445;-52
2023/12/02 13:15:03;;;;;;;33.23;23.30;;;;;;;;;;5038472;28;20917;-50
2023/12/02 13:17:32;;;;;;;29.87;18.83;;;;;;;;;;5038484;28;20489;-52
2023/12/02 13:19:59;;;;;;;28.03;19.40;;;;;;;;;;5040009;28;20501;-52
2023/12/02 13:22:26;;;;;;;27.60;19.57;;;;;;;;;;5036724;28;20509;-51
2023/12/02 13:24:59;;;;;;;23.23;17.53;;;;;;;;;;5038150;28;20447;-51
2023/12/02 13:27:30;;;;;;;30.63;21.40;;;;;;;;;;5038380;28;20439;-51
2023/12/02 13:29:58;;;;;;;27.40;18.67;;;;;;;;;;5036490;28;20431;-52
2023/12/02 13:32:25;;;;;;;25.00;17.83;;;;;;;;;;5039947;28;20459;-52
2023/12/02 13:34:53;;;;;;;27.77;19.77;;;;;;;;;;5036444;28;20430;-52
2023/12/02 13:37:22;;;;;;;25.43;19.03;;;;;;;;;;5038106;28;20508;-52
2023/12/02 13:39:53;;;;;;;24.97;17.60;;;;;;;;;;5037897;28;20447;-53
2023/12/02 13:42:23;;;;;;;23.20;15.63;;;;;;;;;;5038137;28;20443;-52
2023/12/02 13:44:51;;;;;;;23.03;16.33;;;;;;;;;;5039359;28;20482;-52
2023/12/02 13:47:23;;;;;;;25.23;17.20;;;;;;;;;;5038119;28;20441;-52
2023/12/02 13:49:52;;;;;;;34.93;24.33;;;;;;;;;;5037763;28;20435;-52
2023/12/02 13:52:31;;;;;;;33.97;24.43;;;;;;;;;;5039745;28;20453;-51
2023/12/02 13:55:04;;;;;;;29.40;19.73;;;;;;;;;;5037998;28;20443;-52
2023/12/02 13:57:37;;;;;;;25.83;18.60;;;;;;;;;;5037907;28;20844;-52
2023/12/02 14:00:05;;;;;;;23.83;17.37;;;;;;;;;;5037887;28;20904;-51
2023/12/02 14:02:37;;;;;;;25.00;17.47;;;;;;;;;;5037947;28;20449;-51
2023/12/02 14:05:07;;;;;;;22.93;16.03;;;;;;;;;;5041280;28;20484;-51
2023/12/02 14:07:41;;;;;;;22.37;15.83;;;;;;;;;;5037992;28;20435;-51
2023/12/02 14:10:10;;;;;;;23.37;16.23;;;;;;;;;;5037975;28;20434;-51
2023/12/02 14:12:46;;;;;;;22.37;15.70;;;;;;;;;;5037787;28;20504;-52
2023/12/02 14:15:26;;;;;;;22.90;15.67;;;;;;;;;;5037598;28;20446;-52
2023/12/02 14:17:56;;;;;;;24.20;15.87;;;;;;;;;;5039086;28;20813;-51